Time;durP1;ratioP1;P1;durP2;ratioP2;P2;SDS_P1;SDS_P2;PMS_P1;PMS_P2;Temp;Humidity;BMP_temperature;BMP_pressure;BME280_temperature;BME280_humidity;BME280_pressure;Samples;Min_cycle;Max_cycle;Signal;HPM_P1;HPM_P2
2023/04/19 00:01:29;;;;;;;11.83;9.67;;;;;;;9.45;100.00;153786.94;5053791;28;20900;-76
2023/04/19 00:03:56;;;;;;;13.53;9.60;;;;;;;9.50;100.00;153798.59;5067503;28;20931;-75
2023/04/19 00:06:24;;;;;;;11.80;8.70;;;;;;;9.45;100.00;153785.69;5067929;28;20523;-74
2023/04/19 00:08:51;;;;;;;12.40;9.57;;;;;;;9.44;100.00;153784.38;5055916;28;20466;-77
2023/04/19 00:11:18;;;;;;;11.40;9.83;;;;;;;9.48;100.00;153794.69;5038916;28;20863;-77
2023/04/19 00:13:44;;;;;;;13.50;11.10;;;;;;;9.48;100.00;153794.69;5067601;28;20537;-77
2023/04/19 00:16:11;;;;;;;12.33;9.30;;;;;;;9.39;100.00;153770.13;5044410;28;20459;-77
2023/04/19 00:18:39;;;;;;;11.73;9.80;;;;;;;9.37;100.00;153766.22;5065871;28;20965;-77
2023/04/19 00:21:06;;;;;;;13.87;10.43;;;;;;;9.40;100.00;153772.75;5045231;28;20436;-77
2023/04/19 00:23:32;;;;;;;11.67;9.33;;;;;;;9.46;100.00;153788.22;5080922;28;20458;-77
2023/04/19 00:26:02;;;;;;;11.83;9.70;;;;;;;9.41;100.00;153776.59;5062011;28;20852;-77
2023/04/19 00:28:28;;;;;;;13.87;10.07;;;;;;;9.44;100.00;153783.06;5045204;28;20470;-77
2023/04/19 00:30:55;;;;;;;15.30;11.50;;;;;;;9.35;100.00;153759.75;5032247;28;20448;-77
2023/04/19 00:33:22;;;;;;;12.03;9.90;;;;;;;9.36;100.00;153762.38;5052412;28;20470;-77
2023/04/19 00:35:49;;;;;;;12.70;10.27;;;;;;;9.31;100.00;153749.44;5020489;28;20833;-77
2023/04/19 00:38:16;;;;;;;11.57;9.50;;;;;;;9.25;100.00;153735.22;5072607;28;20877;-77
2023/04/19 00:40:45;;;;;;;12.53;10.10;;;;;;;9.34;100.00;153758.50;5036560;28;20483;-77
2023/04/19 00:43:12;;;;;;;12.40;9.93;;;;;;;9.32;100.00;153753.31;5026582;28;20466;-77
2023/04/19 00:45:40;;;;;;;13.67;10.33;;;;;;;9.35;100.00;153761.06;5048501;28;20451;-77
2023/04/19 00:48:06;;;;;;;11.23;10.00;;;;;;;9.36;100.00;153763.66;5070314;28;20899;-77
2023/04/19 00:50:34;;;;;;;12.60;9.60;;;;;;;9.35;100.00;153761.06;5081195;28;20486;-77
2023/04/19 00:53:03;;;;;;;13.80;9.97;;;;;;;9.29;100.00;153745.59;5041524;28;20447;-77
2023/04/19 00:55:30;;;;;;;13.40;11.20;;;;;;;9.34;100.00;153757.22;5070522;28;20987;-77
2023/04/19 00:57:57;;;;;;;13.70;10.30;;;;;;;9.33;100.00;153754.59;5031465;28;20453;-77
2023/04/19 01:00:23;;;;;;;14.47;11.30;;;;;;;9.29;100.00;153745.59;5060612;28;20819;-77
2023/04/19 01:02:51;;;;;;;12.23;9.70;;;;;;;9.23;100.00;153730.03;5060140;28;20474;-77
2023/04/19 01:05:18;;;;;;;14.07;9.70;;;;;;;9.23;100.00;153730.03;5027053;28;20667;-77
2023/04/19 01:07:45;;;;;;;13.43;10.37;;;;;;;9.19;100.00;153719.69;5040302;28;20474;-77
2023/04/19 01:10:16;;;;;;;13.70;11.33;;;;;;;9.20;100.00;153722.28;5034100;28;20833;-77
2023/04/19 01:12:43;;;;;;;14.17;11.07;;;;;;;9.18;100.00;153717.13;5063510;28;20459;-77
2023/04/19 01:15:11;;;;;;;12.93;10.70;;;;;;;9.18;100.00;153718.41;5057307;28;20443;-77
2023/04/19 01:17:37;;;;;;;11.43;10.20;;;;;;;9.17;100.00;153715.81;5046244;28;20961;-77
2023/04/19 01:20:06;;;;;;;16.03;11.10;;;;;;;9.09;100.00;153695.13;5034612;28;21221;-77
2023/04/19 01:22:36;;;;;;;14.93;10.63;;;;;;;9.15;100.00;153709.34;5028795;28;20547;-77
2023/04/19 01:25:05;;;;;;;14.40;11.70;;;;;;;9.13;100.00;153704.19;5047210;28;20448;-77
2023/04/19 01:27:31;;;;;;;14.17;9.87;;;;;;;9.13;100.00;153704.19;5046229;28;20480;-77
2023/04/19 01:29:58;;;;;;;12.47;9.97;;;;;;;9.15;100.00;153709.34;5050429;28;20471;-77
2023/04/19 01:32:26;;;;;;;12.37;9.93;;;;;;;9.19;100.00;153719.69;5064243;28;20452;-77
2023/04/19 01:34:54;;;;;;;12.87;10.93;;;;;;;9.15;100.00;153709.34;5070735;28;20538;-77
2023/04/19 01:37:21;;;;;;;14.07;11.03;;;;;;;9.14;100.00;153706.75;5047909;28;20459;-77
2023/04/19 01:39:49;;;;;;;14.97;12.33;;;;;;;9.14;100.00;153706.75;5020115;28;20489;-77
2023/04/19 01:42:15;;;;;;;14.87;10.43;;;;;;;9.12;100.00;153701.59;5052741;28;20450;-77
2023/04/19 01:44:42;;;;;;;15.70;10.87;;;;;;;9.10;100.00;153696.41;5035974;28;20447;-78
2023/04/19 01:47:08;;;;;;;12.80;10.73;;;;;;;9.11;100.00;153698.97;5026179;28;20462;-77
2023/04/19 01:49:35;;;;;;;16.73;11.50;;;;;;;9.06;100.00;153687.34;5064980;28;20470;-77
2023/04/19 01:52:02;;;;;;;12.30;10.20;;;;;;;9.09;100.00;153693.81;5037336;28;20449;-77
2023/04/19 01:54:29;;;;;;;12.43;10.00;;;;;;;9.09;100.00;153695.13;5047545;28;20453;-77
2023/04/19 01:56:57;;;;;;;13.47;11.00;;;;;;;9.07;100.00;153688.66;5046736;28;20465;-77
2023/04/19 01:59:23;;;;;;;13.43;10.40;;;;;;;9.04;100.00;153680.88;5038733;28;20438;-77
2023/04/19 02:01:50;;;;;;;13.30;11.17;;;;;;;9.02;100.00;153677.03;5044775;28;20813;-77
2023/04/19 02:04:19;;;;;;;14.17;11.37;;;;;;;9.03;100.00;153679.59;5061434;28;20468;-77
2023/04/19 02:06:46;;;;;;;12.90;11.40;;;;;;;8.99;100.00;153669.25;5044016;28;20437;-77
2023/04/19 02:09:12;;;;;;;12.30;10.20;;;;;;;8.99;100.00;153669.25;5045196;28;20525;-77
2023/04/19 02:11:42;;;;;;;14.73;11.13;;;;;;;8.95;100.00;153658.91;5050406;28;20447;-77
2023/04/19 02:14:10;;;;;;;14.67;11.27;;;;;;;8.94;100.00;153656.34;5030210;28;20857;-77
2023/04/19 02:16:36;;;;;;;14.23;10.90;;;;;;;8.93;100.00;153653.72;5064334;28;20438;-77
2023/04/19 02:19:03;;;;;;;13.83;10.87;;;;;;;8.91;100.00;153647.28;5048295;28;20466;-77
2023/04/19 02:21:30;;;;;;;15.87;11.43;;;;;;;8.90;100.00;153645.97;5057411;28;20451;-77
2023/04/19 02:23:57;;;;;;;18.43;12.53;;;;;;;8.88;100.00;153640.81;5058356;28;20462;-77
2023/04/19 02:26:24;;;;;;;13.13;10.57;;;;;;;8.90;100.00;153644.66;5037737;28;20446;-77
2023/04/19 02:28:51;;;;;;;15.20;11.87;;;;;;;8.86;100.00;153635.66;5050635;28;21042;-77
2023/04/19 02:31:18;;;;;;;15.00;11.07;;;;;;;8.85;100.00;153631.75;5025288;28;20454;-77
2023/04/19 02:33:46;;;;;;;14.50;10.80;;;;;;;8.84;100.00;153629.19;5044772;28;20459;-77
2023/04/19 02:36:13;;;;;;;17.87;11.80;;;;;;;8.83;100.00;153626.59;5048508;28;20446;-77
2023/04/19 02:38:40;;;;;;;12.93;10.27;;;;;;;8.84;100.00;153630.44;5027847;28;20830;-77
2023/04/19 02:41:07;;;;;;;16.00;12.47;;;;;;;8.83;100.00;153626.59;5037517;28;20467;-77
2023/04/19 02:43:33;;;;;;;14.83;11.77;;;;;;;8.81;100.00;153622.72;5029230;28;20466;-77
2023/04/19 02:46:01;;;;;;;16.90;11.90;;;;;;;8.80;100.00;153620.13;5071556;28;20446;-77
2023/04/19 02:48:28;;;;;;;13.30;10.70;;;;;;;8.79;100.00;153617.50;5063087;28;20463;-77
2023/04/19 02:50:55;;;;;;;16.03;11.77;;;;;;;8.79;100.00;153616.25;5046867;28;20461;-78
2023/04/19 02:53:22;;;;;;;13.80;11.57;;;;;;;8.74;100.00;153603.28;5054001;28;20542;-77
2023/04/19 02:55:50;;;;;;;15.13;11.30;;;;;;;8.76;100.00;153609.81;5051688;28;20462;-76
2023/04/19 02:58:19;;;;;;;14.63;11.40;;;;;;;8.76;100.00;153608.50;5023336;28;20475;-77
2023/04/19 03:01:15;;;;;;;16.63;12.13;;;;;;;8.72;100.00;153599.44;5024652;28;20969;-77
2023/04/19 03:03:43;;;;;;;16.50;11.43;;;;;;;8.70;100.00;153592.97;5087299;28;20802;-77
2023/04/19 03:06:09;;;;;;;16.27;11.73;;;;;;;8.69;100.00;153590.38;5030156;28;20450;-77
2023/04/19 03:08:36;;;;;;;18.20;12.40;;;;;;;8.69;100.00;153590.38;5046187;28;20828;-77
2023/04/19 03:11:03;;;;;;;14.23;11.60;;;;;;;8.68;100.00;153587.81;5071399;28;20474;-77
2023/04/19 03:13:30;;;;;;;14.07;11.07;;;;;;;8.66;100.00;153583.91;5038989;28;20541;-77
2023/04/19 03:15:57;;;;;;;17.23;12.93;;;;;;;8.63;100.00;153574.88;5034131;28;20455;-77
2023/04/19 03:18:24;;;;;;;16.23;11.40;;;;;;;8.63;100.00;153574.88;5062542;28;20858;-77
2023/04/19 03:20:55;;;;;;;14.00;11.87;;;;;;;8.61;100.00;153570.97;5045517;28;20426;-77
2023/04/19 03:23:22;;;;;;;15.40;11.70;;;;;;;8.63;100.00;153576.13;5057184;28;20454;-77
2023/04/19 03:25:50;;;;;;;15.73;12.37;;;;;;;8.60;100.00;153568.44;5032165;28;20447;-77
2023/04/19 03:28:37;;;;;;;15.97;11.50;;;;;;;8.61;100.00;153570.97;5050702;28;20446;-77
2023/04/19 03:31:24;;;;;;;14.43;11.60;;;;;;;8.58;100.00;153563.22;5016840;28;20427;-77
2023/04/19 03:33:53;;;;;;;16.63;11.87;;;;;;;8.55;100.00;153556.75;5046088;28;20540;-77
2023/04/19 03:36:25;;;;;;;17.90;11.87;;;;;;;8.55;100.00;153556.75;5028268;28;20447;-77
2023/04/19 03:38:52;;;;;;;17.00;13.07;;;;;;;8.53;100.00;153551.59;5037470;28;20486;-77
2023/04/19 03:41:23;;;;;;;16.53;12.53;;;;;;;8.53;100.00;153550.28;5073569;28;20448;-77
2023/04/19 03:43:57;;;;;;;18.20;12.43;;;;;;;8.53;100.00;153551.59;5047544;28;20842;-77
2023/04/19 03:46:24;;;;;;;16.90;12.20;;;;;;;8.52;100.00;153547.75;5070216;28;20537;-77
2023/04/19 03:48:52;;;;;;;13.50;12.00;;;;;;;8.52;100.00;153547.75;5056576;28;20506;-77
2023/04/19 03:51:19;;;;;;;16.50;12.97;;;;;;;8.49;100.00;153541.28;5037962;28;20541;-77
2023/04/19 03:53:47;;;;;;;18.07;12.30;;;;;;;8.46;100.00;153533.53;5048804;28;20466;-77
2023/04/19 03:56:17;;;;;;;16.60;12.10;;;;;;;8.43;100.00;153525.75;5029090;28;20446;-77
2023/04/19 03:58:44;;;;;;;14.97;11.90;;;;;;;8.43;100.00;153525.75;5065519;28;20539;-77
2023/04/19 04:01:19;;;;;;;16.67;12.27;;;;;;;8.45;100.00;153530.91;5031501;28;20450;-77
2023/04/19 04:03:46;;;;;;;14.40;12.20;;;;;;;8.43;100.00;153525.75;5069137;28;20446;-77
2023/04/19 04:06:13;;;;;;;15.17;12.20;;;;;;;8.43;100.00;153525.75;5053699;28;20458;-77
2023/04/19 04:08:39;;;;;;;15.23;11.93;;;;;;;8.47;100.00;153534.81;5044617;28;20481;-77
2023/04/19 04:11:07;;;;;;;17.70;12.57;;;;;;;8.45;100.00;153530.91;5049868;28;20826;-77
2023/04/19 04:13:34;;;;;;;16.00;12.67;;;;;;;8.45;100.00;153530.91;5055229;28;20459;-77
2023/04/19 04:16:12;;;;;;;18.77;13.17;;;;;;;8.46;100.00;153533.53;5037351;28;20460;-77
2023/04/19 04:18:39;;;;;;;16.77;12.77;;;;;;;8.42;100.00;153523.16;5024040;28;20470;-77
2023/04/19 04:21:09;;;;;;;17.20;12.10;;;;;;;8.40;100.00;153516.69;5040867;28;20471;-77
2023/04/19 04:23:40;;;;;;;16.00;13.07;;;;;;;8.38;100.00;153512.84;5051289;28;20540;-77
2023/04/19 04:26:12;;;;;;;16.97;12.97;;;;;;;8.34;100.00;153501.22;5032709;28;20446;-77
2023/04/19 04:29:08;;;;;;;19.20;14.03;;;;;;;8.33;100.00;153499.91;5041116;28;20478;-77
2023/04/19 04:31:36;;;;;;;16.93;13.17;;;;;;;8.36;100.00;153506.38;5045090;28;20447;-77
2023/04/19 04:34:03;;;;;;;17.73;12.47;;;;;;;8.33;100.00;153499.91;5059114;28;21726;-77
2023/04/19 04:36:32;;;;;;;18.30;13.13;;;;;;;8.33;100.00;153498.63;5034390;28;21156;-77
2023/04/19 04:39:00;;;;;;;18.23;12.67;;;;;;;8.29;100.00;153489.56;5026824;28;20535;-77
2023/04/19 04:41:30;;;;;;;18.20;13.37;;;;;;;8.31;100.00;153494.72;5054246;28;20458;-77
2023/04/19 04:43:57;;;;;;;17.07;12.20;;;;;;;8.32;100.00;153497.31;5048563;28;20455;-77
2023/04/19 04:46:23;;;;;;;15.30;12.50;;;;;;;8.32;100.00;153496.00;5036536;28;20442;-77
2023/04/19 04:48:50;;;;;;;19.60;14.80;;;;;;;8.31;100.00;153494.72;5035752;28;20457;-77
2023/04/19 04:51:19;;;;;;;18.33;13.27;;;;;;;8.34;100.00;153502.47;5042206;28;20462;-77
2023/04/19 04:53:48;;;;;;;17.33;14.03;;;;;;;8.31;100.00;153493.47;5048911;28;20862;-77
2023/04/19 04:56:15;;;;;;;21.40;13.10;;;;;;;8.28;100.00;153487.00;5045673;28;20593;-77
2023/04/19 04:58:44;;;;;;;19.27;12.40;;;;;;;8.25;100.00;153479.19;5051077;28;20512;-77
2023/04/19 05:01:18;;;;;;;14.17;11.87;;;;;;;8.23;100.00;153474.03;5032568;28;20551;-77
2023/04/19 05:03:44;;;;;;;15.93;12.53;;;;;;;8.26;100.00;153481.75;5053565;28;20450;-77
2023/04/19 05:06:16;;;;;;;20.27;13.20;;;;;;;8.24;100.00;153476.59;5034258;28;20450;-77
2023/04/19 05:08:44;;;;;;;18.60;13.23;;;;;;;8.24;100.00;153476.59;5047463;28;20482;-77
2023/04/19 05:11:16;;;;;;;18.83;13.67;;;;;;;8.22;100.00;153471.44;5066570;28;20505;-77
2023/04/19 05:13:45;;;;;;;17.70;13.80;;;;;;;8.20;100.00;153466.28;5044725;28;20453;-77
2023/04/19 05:16:12;;;;;;;18.00;12.90;;;;;;;8.14;100.00;153449.44;5029500;28;20446;-77
2023/04/19 05:18:41;;;;;;;17.00;12.40;;;;;;;8.11;100.00;153441.69;5049146;28;20538;-77
2023/04/19 05:21:09;;;;;;;19.80;13.67;;;;;;;8.09;100.00;153436.53;5061775;28;20549;-77
2023/04/19 05:23:36;;;;;;;17.20;12.60;;;;;;;8.08;100.00;153435.22;5038844;28;20519;-77
2023/04/19 05:26:03;;;;;;;20.07;13.53;;;;;;;8.07;100.00;153431.38;5032968;28;20454;-77
2023/04/19 05:28:30;;;;;;;17.50;14.30;;;;;;;8.06;100.00;153430.06;5063606;28;20471;-76
2023/04/19 05:31:12;;;;;;;20.07;13.10;;;;;;;8.07;100.00;153432.66;5049839;28;21100;-77
2023/04/19 05:33:46;;;;;;;17.43;13.10;;;;;;;8.02;100.00;153419.75;5032959;28;20464;-77
2023/04/19 05:36:13;;;;;;;17.50;12.87;;;;;;;8.03;100.00;153422.31;5024651;28;20609;-76
2023/04/19 05:38:40;;;;;;;17.90;12.17;;;;;;;8.05;100.00;153427.47;5032756;28;20479;-77
2023/04/19 05:41:10;;;;;;;18.47;14.17;;;;;;;8.01;100.00;153417.16;5034134;28;20454;-77
2023/04/19 05:43:37;;;;;;;16.00;12.33;;;;;;;8.04;100.00;153424.91;5063894;28;20447;-77
2023/04/19 05:46:03;;;;;;;16.43;12.63;;;;;;;8.06;100.00;153430.06;5046524;28;20500;-77
2023/04/19 05:48:31;;;;;;;17.73;14.37;;;;;;;8.09;100.00;153437.81;5063142;28;20482;-77
2023/04/19 05:51:33;;;;;;;19.03;13.63;;;;;;;8.16;100.00;153455.91;4985261;28;20465;-77
2023/04/19 05:54:13;;;;;;;17.63;13.23;;;;;;;8.16;100.00;153455.91;5020503;28;21145;-77
2023/04/19 05:56:43;;;;;;;17.23;13.87;;;;;;;8.15;100.00;153453.34;5045167;28;20438;-77
2023/04/19 05:59:10;;;;;;;15.53;12.80;;;;;;;8.13;100.00;153446.88;5045464;28;20476;-77
2023/04/19 06:01:37;;;;;;;17.77;13.20;;;;;;;8.17;100.00;153457.19;5063913;28;20450;-77
2023/04/19 06:04:05;;;;;;;16.13;12.90;;;;;;;8.22;100.00;153470.13;5063451;28;20450;-77
2023/04/19 06:06:31;;;;;;;20.37;12.97;;;;;;;8.22;100.00;153471.44;5044442;28;20992;-77
2023/04/19 06:08:58;;;;;;;16.13;12.87;;;;;;;8.23;100.00;153474.03;5027119;28;20557;-77
2023/04/19 06:11:25;;;;;;;15.53;12.03;;;;;;;8.22;100.00;153471.44;5063504;28;20489;-77
2023/04/19 06:13:51;;;;;;;16.20;13.70;;;;;;;8.24;100.00;153476.59;5044238;28;20572;-77
2023/04/19 06:16:18;;;;;;;19.07;13.00;;;;;;;8.29;100.00;153489.56;5063290;28;20465;-77
2023/04/19 06:18:45;;;;;;;17.27;11.90;;;;;;;8.32;100.00;153497.31;5043583;28;20857;-77
2023/04/19 06:21:13;;;;;;;16.40;12.53;;;;;;;8.33;100.00;153499.91;5046711;28;20892;-77
2023/04/19 06:23:40;;;;;;;20.07;12.50;;;;;;;8.25;100.00;153479.19;5064271;28;20454;-77
2023/04/19 06:26:06;;;;;;;18.10;13.83;;;;;;;8.32;100.00;153497.31;5045963;28;20469;-77
2023/04/19 06:28:33;;;;;;;19.40;13.47;;;;;;;8.31;100.00;153494.72;5046208;28;20972;-77
2023/04/19 06:31:01;;;;;;;16.30;12.83;;;;;;;8.33;100.00;153499.91;5064729;28;20481;-77
2023/04/19 06:33:27;;;;;;;18.97;13.43;;;;;;;8.41;100.00;153520.59;5045846;28;20976;-77
2023/04/19 06:35:54;;;;;;;15.90;11.90;;;;;;;8.48;100.00;153537.38;5033312;28;20454;-77
2023/04/19 06:38:22;;;;;;;17.90;13.27;;;;;;;8.50;100.00;153543.84;5045472;28;20453;-76
2023/04/19 06:40:48;;;;;;;17.87;13.07;;;;;;;8.57;100.00;153560.66;5061684;28;20481;-77
2023/04/19 06:43:15;;;;;;;18.03;14.70;;;;;;;8.57;100.00;153560.66;5062167;28;20460;-77
2023/04/19 06:45:42;;;;;;;18.87;13.60;;;;;;;8.56;100.00;153559.38;5059305;28;20852;-77
2023/04/19 06:48:08;;;;;;;19.23;13.90;;;;;;;8.66;100.00;153583.91;5068412;28;20462;-77
2023/04/19 06:50:35;;;;;;;16.40;12.83;;;;;;;8.70;100.00;153592.97;5044440;28;20463;-78
2023/04/19 06:53:01;;;;;;;15.67;12.40;;;;;;;8.69;100.00;153590.38;5027386;28;20881;-77
2023/04/19 06:55:29;;;;;;;17.60;13.10;;;;;;;8.72;100.00;153598.13;5060352;28;20880;-77
2023/04/19 06:57:56;;;;;;;16.80;12.50;;;;;;;8.71;100.00;153595.56;5059961;28;20472;-77
2023/04/19 07:00:23;;;;;;;14.50;11.37;;;;;;;8.70;100.00;153592.97;5044704;28;20454;-77
2023/04/19 07:02:50;;;;;;;15.30;11.90;;;;;;;8.63;100.00;153576.13;5061869;28;20762;-77
2023/04/19 07:05:17;;;;;;;14.90;11.33;;;;;;;8.65;100.00;153580.03;5063452;28;20441;-77
2023/04/19 07:07:44;;;;;;;19.20;13.50;;;;;;;8.78;100.00;153613.66;5067205;28;20540;-77
2023/04/19 07:10:11;;;;;;;16.67;12.40;;;;;;;8.78;100.00;153613.66;5045121;28;20520;-77
2023/04/19 07:12:39;;;;;;;16.00;11.93;;;;;;;8.79;100.00;153617.50;5034724;28;20996;-77
2023/04/19 07:15:06;;;;;;;14.70;12.37;;;;;;;8.80;100.00;153620.13;5067147;28;20857;-77
2023/04/19 07:17:34;;;;;;;16.00;12.60;;;;;;;8.87;100.00;153636.94;5082423;28;20531;-77
2023/04/19 07:20:03;;;;;;;16.23;11.23;;;;;;;8.86;100.00;153635.66;5050693;28;20869;-77
2023/04/19 07:22:30;;;;;;;14.93;11.83;;;;;;;8.85;100.00;153633.03;5050401;28;20461;-77
2023/04/19 07:24:56;;;;;;;16.53;11.60;;;;;;;8.84;100.00;153629.19;5060722;28;20452;-77
2023/04/19 07:27:23;;;;;;;15.10;11.33;;;;;;;8.90;100.00;153644.66;5048864;28;20827;-77
2023/04/19 07:29:52;;;;;;;17.00;12.67;;;;;;;8.93;100.00;153652.44;5046877;28;20447;-77
2023/04/19 07:32:19;;;;;;;16.23;12.13;;;;;;;8.96;100.00;153661.50;5026947;28;20488;-77
2023/04/19 07:34:46;;;;;;;14.60;11.60;;;;;;;9.05;100.00;153683.50;5066481;28;20446;-77
2023/04/19 07:37:13;;;;;;;15.60;11.63;;;;;;;9.20;100.00;153722.28;5071074;28;20957;-75
2023/04/19 07:39:39;;;;;;;15.40;11.83;;;;;;;9.33;100.00;153755.91;5077807;28;20484;-75
2023/04/19 07:42:06;;;;;;;15.77;12.20;;;;;;;9.48;100.00;153794.69;5050509;28;20450;-76
2023/04/19 07:44:32;;;;;;;17.33;12.87;;;;;;;9.51;100.00;153802.47;5042582;28;20489;-76
2023/04/19 07:47:00;;;;;;;15.53;12.10;;;;;;;9.60;100.00;153825.78;5062254;28;20454;-76
2023/04/19 07:49:28;;;;;;;17.07;11.70;;;;;;;9.65;100.00;153837.41;5065290;28;20450;-75
2023/04/19 07:51:54;;;;;;;18.83;13.60;;;;;;;9.70;99.93;153851.63;5050934;28;20481;-76
2023/04/19 07:54:21;;;;;;;15.50;11.87;;;;;;;9.73;99.11;153858.09;5068273;28;20458;-76
2023/04/19 07:56:47;;;;;;;14.80;11.17;;;;;;;9.76;100.00;153867.19;5063941;28;20469;-76
2023/04/19 07:59:14;;;;;;;16.80;11.83;;;;;;;9.89;99.55;153898.22;5048011;28;20450;-76
2023/04/19 08:01:41;;;;;;;17.23;13.10;;;;;;;9.87;99.42;153893.06;5050620;28;20537;-76
2023/04/19 08:04:09;;;;;;;13.57;11.43;;;;;;;9.82;98.49;153882.69;5067717;28;20450;-76
2023/04/19 08:06:38;;;;;;;15.37;11.50;;;;;;;9.77;99.13;153869.75;5066240;28;20794;-76
2023/04/19 08:09:05;;;;;;;15.10;11.50;;;;;;;9.69;99.18;153847.72;5046187;28;20454;-76
2023/04/19 08:11:32;;;;;;;13.80;11.40;;;;;;;9.73;99.26;153859.41;5050488;28;20515;-76
2023/04/19 08:13:58;;;;;;;14.50;11.60;;;;;;;9.69;99.55;153849.03;5084242;28;20450;-77
2023/04/19 08:16:26;;;;;;;14.30;11.50;;;;;;;9.74;99.47;153861.97;5064281;28;20443;-78
2023/04/19 08:18:53;;;;;;;15.07;11.30;;;;;;;9.81;98.28;153878.81;5042465;28;20509;-78
2023/04/19 08:21:21;;;;;;;13.33;10.10;;;;;;;9.88;98.51;153896.91;5068602;28;20446;-78
2023/04/19 08:23:47;;;;;;;12.83;10.80;;;;;;;9.95;97.43;153915.06;5063277;28;20824;-77
2023/04/19 08:26:14;;;;;;;15.47;11.73;;;;;;;9.90;96.90;153900.81;5066052;28;20478;-77
2023/04/19 08:28:40;;;;;;;13.60;10.47;;;;;;;9.82;97.94;153880.13;5045213;28;20450;-77
2023/04/19 08:31:07;;;;;;;12.93;10.63;;;;;;;9.82;98.12;153880.13;5045291;28;20467;-77
2023/04/19 08:33:34;;;;;;;14.10;11.03;;;;;;;9.95;98.08;153913.75;5044926;28;20470;-77
2023/04/19 08:36:00;;;;;;;14.57;10.00;;;;;;;10.03;96.63;153934.47;5033774;28;20453;-77
2023/04/19 08:38:28;;;;;;;10.40;8.70;;;;;;;10.11;94.87;153956.44;5082441;28;20450;-77
2023/04/19 08:40:55;;;;;;;11.13;9.07;;;;;;;10.14;94.57;153963.00;5066350;28;21022;-77
2023/04/19 08:43:21;;;;;;;10.07;8.33;;;;;;;10.13;93.51;153960.41;5064576;28;21052;-77
2023/04/19 08:45:49;;;;;;;11.70;8.60;;;;;;;10.19;94.14;153975.94;5084485;28;20458;-77
2023/04/19 08:48:16;;;;;;;13.80;10.30;;;;;;;10.14;92.75;153963.00;5033961;28;20819;-77
2023/04/19 08:50:44;;;;;;;11.83;8.60;;;;;;;10.17;92.33;153970.72;5067993;28;20935;-77
2023/04/19 08:53:11;;;;;;;11.17;7.67;;;;;;;10.30;92.18;154005.69;5046211;28;20460;-77
2023/04/19 08:55:41;;;;;;;10.37;9.00;;;;;;;10.47;91.94;154047.13;5067307;28;20477;-77
2023/04/19 08:58:07;;;;;;;10.47;8.37;;;;;;;10.47;90.25;154047.13;5065945;28;20489;-77
2023/04/19 09:00:37;;;;;;;9.13;8.10;;;;;;;10.58;90.27;154075.59;5066595;28;20469;-76
2023/04/19 09:03:06;;;;;;;10.93;8.77;;;;;;;10.61;89.79;154084.69;5064423;28;20450;-77
2023/04/19 09:05:33;;;;;;;10.40;8.73;;;;;;;10.59;90.24;154079.47;5065139;28;20448;-77
2023/04/19 09:08:20;;;;;;;13.23;9.30;;;;;;;10.59;89.74;154079.47;5065282;28;20455;-77
2023/04/19 09:10:54;;;;;;;12.37;9.43;;;;;;;10.54;89.44;154065.28;5061295;28;20467;-77
2023/04/19 09:13:20;;;;;;;12.70;8.50;;;;;;;10.66;89.88;154097.63;5064714;28;20458;-77
2023/04/19 09:15:47;;;;;;;9.57;8.23;;;;;;;10.68;87.60;154102.78;5064986;28;20934;-77
2023/04/19 09:18:14;;;;;;;10.83;7.23;;;;;;;10.72;86.37;154113.13;5044008;28;20473;-77
2023/04/19 09:20:42;;;;;;;11.97;7.67;;;;;;;10.86;86.48;154149.41;5042941;28;20476;-77
2023/04/19 09:23:11;;;;;;;10.07;8.20;;;;;;;11.02;85.56;154190.84;5063022;28;20961;-77
2023/04/19 09:25:37;;;;;;;12.20;8.43;;;;;;;11.12;85.47;154214.19;5045658;28;21012;-77
2023/04/19 09:28:13;;;;;;;10.13;8.47;;;;;;;11.17;83.64;154227.16;5045959;28;20463;-77
2023/04/19 09:30:40;;;;;;;8.93;7.83;;;;;;;11.16;84.29;154225.84;5066835;28;20474;-77
2023/04/19 09:33:07;;;;;;;10.13;8.73;;;;;;;11.24;83.40;154245.25;5066834;28;20542;-77
2023/04/19 09:35:41;;;;;;;9.63;7.77;;;;;;;11.46;84.24;154302.28;5066508;28;20505;-77
2023/04/19 09:38:08;;;;;;;12.30;8.70;;;;;;;11.52;82.77;154317.81;5065522;28;20883;-77
2023/04/19 09:40:35;;;;;;;10.07;8.00;;;;;;;11.62;82.72;154343.75;5080949;28;20483;-77
2023/04/19 09:43:02;;;;;;;11.33;9.20;;;;;;;11.55;81.22;154326.88;5025699;28;20452;-77
2023/04/19 09:45:39;;;;;;;10.10;8.70;;;;;;;11.52;81.57;154317.81;5060875;28;20457;-77
2023/04/19 09:48:07;;;;;;;11.73;9.07;;;;;;;11.43;82.84;154294.50;5049962;28;20480;-76
2023/04/19 09:50:36;;;;;;;9.90;7.60;;;;;;;11.67;83.37;154356.72;5055770;28;20461;-77
2023/04/19 09:53:03;;;;;;;11.10;9.00;;;;;;;11.69;82.43;154360.63;5061280;28;20462;-77
2023/04/19 09:55:30;;;;;;;10.43;8.50;;;;;;;11.49;83.32;154311.31;5044161;28;20454;-77
2023/04/19 09:57:57;;;;;;;12.60;9.90;;;;;;;11.27;84.30;154253.03;5046434;28;20439;-77
2023/04/19 10:00:24;;;;;;;11.60;9.03;;;;;;;11.23;85.35;154242.66;5065957;28;20533;-77
2023/04/19 10:02:56;;;;;;;11.93;9.40;;;;;;;11.35;85.18;154273.78;5079844;28;20834;-77
2023/04/19 10:05:23;;;;;;;13.83;10.40;;;;;;;11.41;84.93;154289.34;5064042;28;20504;-75
2023/04/19 10:07:50;;;;;;;14.43;9.80;;;;;;;11.48;84.67;154307.47;5063976;28;20442;-77
2023/04/19 10:10:17;;;;;;;12.77;10.13;;;;;;;11.44;84.56;154298.38;5066353;28;20465;-77
2023/04/19 10:12:45;;;;;;;12.03;9.30;;;;;;;11.48;84.66;154307.47;5065790;28;20502;-78
2023/04/19 10:15:13;;;;;;;11.77;9.23;;;;;;;11.37;84.83;154280.25;5048470;28;20613;-77
2023/04/19 10:17:40;;;;;;;12.60;10.00;;;;;;;11.47;84.17;154304.84;5064082;28;20958;-77
2023/04/19 10:20:14;;;;;;;12.03;9.07;;;;;;;11.41;83.48;154289.34;5041501;28;20471;-77
2023/04/19 10:22:40;;;;;;;11.17;8.67;;;;;;;11.27;83.06;154254.34;5060459;28;20530;-77
2023/04/19 10:25:08;;;;;;;10.63;8.83;;;;;;;11.35;83.91;154273.78;5046211;28;20559;-77
2023/04/19 10:27:35;;;;;;;10.17;8.67;;;;;;;11.47;81.41;154306.16;5062684;28;20461;-77
2023/04/19 10:30:04;;;;;;;8.43;6.83;;;;;;;11.67;81.29;154356.72;5062246;28;20529;-77
2023/04/19 10:32:38;;;;;;;9.70;8.57;;;;;;;11.68;80.64;154359.28;5026547;28;20469;-77
2023/04/19 10:35:08;;;;;;;10.20;8.43;;;;;;;11.61;81.13;154342.44;5063761;28;20861;-76
2023/04/19 10:37:39;;;;;;;10.00;8.60;;;;;;;11.73;81.22;154372.28;5062001;28;20455;-77
2023/04/19 10:40:07;;;;;;;8.30;7.33;;;;;;;11.93;79.76;154424.16;5057826;28;20492;-77
2023/04/19 10:43:11;;;;;;;9.43;7.53;;;;;;;11.88;78.76;154409.88;5019140;28;20454;-77
2023/04/19 10:45:38;;;;;;;9.30;7.80;;;;;;;11.89;79.87;154413.75;5045724;28;20465;-77
2023/04/19 10:48:05;;;;;;;9.10;7.27;;;;;;;11.84;80.19;154400.78;5043917;28;20464;-78
2023/04/19 10:50:59;;;;;;;11.17;8.60;;;;;;;11.71;81.56;154365.81;5043418;28;20870;-77
2023/04/19 10:56:23;;;;;;;8.90;7.90;;;;;;;11.73;82.43;154372.28;5061842;28;21098;-77
2023/04/19 10:59:12;;;;;;;13.30;10.03;;;;;;;11.66;81.83;154354.09;5056891;28;20476;-77
2023/04/19 11:01:41;;;;;;;10.10;7.80;;;;;;;11.57;83.00;154330.75;5061568;28;20584;-77
2023/04/19 11:04:09;;;;;;;11.93;8.70;;;;;;;11.52;83.16;154319.09;5060236;28;20443;-77
2023/04/19 11:06:36;;;;;;;10.90;8.90;;;;;;;11.46;84.88;154302.28;5051938;28;20447;-77
2023/04/19 11:09:04;;;;;;;11.73;9.27;;;;;;;11.44;85.31;154297.06;5073423;28;20481;-77
2023/04/19 11:11:35;;;;;;;12.13;8.90;;;;;;;11.41;85.57;154290.59;5075700;28;21007;-77
2023/04/19 11:14:03;;;;;;;11.40;8.90;;;;;;;11.35;86.15;154273.78;5041598;28;21197;-77
2023/04/19 11:16:29;;;;;;;13.17;9.57;;;;;;;11.45;87.38;154299.69;5074499;28;20445;-77
2023/04/19 11:18:56;;;;;;;11.10;8.53;;;;;;;11.46;85.08;154302.28;5073394;28;20476;-77
2023/04/19 11:21:23;;;;;;;10.10;8.23;;;;;;;11.36;85.68;154276.34;5060082;28;20996;-77